Poolesville, Maryland
Current Conditions -  °F | °C
As of 6:55 AM on Monday 22 Dec 2014 (Local Time) from KJYO Reporting Station
Overcast Overcast  
Wind Chill: 30°   Ceiling: 3900
Heat Index: 30°   Visibility: 7mi
Dew Point: 28°   Wind: 3mph
Humidity: 93%   Direction: 30°NNE
Pressure: 30.29"   Gusts: NA
Location:  39.15°N, 77.42°W
Report Text: KJYO 221155Z AUTO 03003KT 7SM OVC039 M01/M02 A3029 RMK AO2
Loading
Personal Weather Stations






























Interactive Weather Map New forecast layout! Learn more

10-Day Weather Forecast

Advertisements
Track Severe Weather on mobile